Time;durP1;ratioP1;P1;durP2;ratioP2;P2;SDS_P1;SDS_P2;PMS_P1;PMS_P2;Temp;Humidity;BMP_temperature;BMP_pressure;BME280_temperature;BME280_humidity;BME280_pressure;Samples;Min_cycle;Max_cycle;Signal;HPM_P1;HPM_P2
2022/07/05 00:01:29;;;;;;;2.27;2.03;;;26.40;58.50;;;;;;6275439;22;20412;-71
2022/07/05 00:03:55;;;;;;;2.77;1.80;;;26.40;58.50;;;;;;6248443;22;20980;-72
2022/07/05 00:06:23;;;;;;;2.37;2.17;;;26.40;58.50;;;;;;6223555;22;20437;-71
2022/07/05 00:08:49;;;;;;;2.80;2.03;;;26.30;58.50;;;;;;6273366;22;20406;-71
2022/07/05 00:11:18;;;;;;;2.20;2.00;;;26.30;58.50;;;;;;6248283;22;20357;-72
2022/07/05 00:13:47;;;;;;;2.47;1.93;;;26.30;58.50;;;;;;6275421;22;20400;-72
2022/07/05 00:16:13;;;;;;;2.37;1.93;;;26.30;58.50;;;;;;6275269;22;20365;-71
2022/07/05 00:18:44;;;;;;;3.10;1.70;;;26.30;58.60;;;;;;6248012;22;20408;-72
2022/07/05 00:21:15;;;;;;;2.43;1.90;;;26.30;58.60;;;;;;6248452;22;20910;-71
2022/07/05 00:23:41;;;;;;;3.70;2.00;;;26.20;58.60;;;;;;6222684;22;20845;-71
2022/07/05 00:26:09;;;;;;;2.30;2.10;;;26.20;58.60;;;;;;6248616;22;20785;-72
2022/07/05 00:28:38;;;;;;;3.43;1.87;;;26.20;58.60;;;;;;6248512;22;20745;-72
2022/07/05 00:31:04;;;;;;;3.27;2.43;;;26.20;58.70;;;;;;6248334;22;20364;-72
2022/07/05 00:33:33;;;;;;;2.17;1.80;;;26.20;58.70;;;;;;6248155;22;20705;-72
2022/07/05 00:36:01;;;;;;;4.30;2.30;;;26.10;58.70;;;;;;6274341;22;20396;-72
2022/07/05 00:38:27;;;;;;;3.33;2.23;;;26.10;58.70;;;;;;6222507;22;20881;-71
2022/07/05 00:40:53;;;;;;;3.03;2.20;;;26.10;58.70;;;;;;6248289;22;20869;-72
2022/07/05 00:43:24;;;;;;;2.33;2.13;;;26.10;58.70;;;;;;6247922;22;20915;-72
2022/07/05 00:45:51;;;;;;;2.53;2.00;;;26.10;58.80;;;;;;6222535;22;20397;-72
2022/07/05 00:48:17;;;;;;;2.63;1.90;;;26.10;58.80;;;;;;6247767;22;20412;-72
2022/07/05 00:50:43;;;;;;;2.13;1.83;;;26.00;58.70;;;;;;6222238;22;20840;-72
2022/07/05 00:53:13;;;;;;;2.83;1.83;;;26.00;58.70;;;;;;6248148;22;20389;-72
2022/07/05 00:55:45;;;;;;;2.60;1.80;;;26.00;59.10;;;;;;6218851;22;20396;-72
2022/07/05 00:58:15;;;;;;;2.60;2.10;;;26.00;58.80;;;;;;6274639;22;20863;-72
2022/07/05 01:00:46;;;;;;;2.50;2.00;;;26.00;58.80;;;;;;6274663;22;20444;-71
2022/07/05 01:03:15;;;;;;;2.20;1.80;;;26.00;58.80;;;;;;6274895;22;20781;-72
2022/07/05 01:05:41;;;;;;;1.93;1.70;;;25.90;58.80;;;;;;6222538;22;20404;-72
2022/07/05 01:08:08;;;;;;;2.70;1.90;;;25.90;58.80;;;;;;6247797;22;20358;-72
2022/07/05 01:10:34;;;;;;;2.50;1.80;;;25.90;58.80;;;;;;6247806;22;20885;-71
2022/07/05 01:13:00;;;;;;;3.10;1.87;;;25.90;58.80;;;;;;6247683;22;20369;-71
2022/07/05 01:15:29;;;;;;;2.73;2.03;;;25.90;58.90;;;;;;6275007;22;20455;-71
2022/07/05 01:18:00;;;;;;;1.87;1.60;;;25.90;58.90;;;;;;6222139;22;20435;-71
2022/07/05 01:20:28;;;;;;;2.23;2.03;;;25.90;58.90;;;;;;6248372;22;20392;-72
2022/07/05 01:23:01;;;;;;;3.27;1.93;;;25.80;58.90;;;;;;6222309;22;20757;-72
2022/07/05 01:25:31;;;;;;;2.00;1.80;;;25.80;58.90;;;;;;6222691;22;20376;-72
2022/07/05 01:28:05;;;;;;;1.90;1.80;;;25.80;59.00;;;;;;6247893;22;20478;-71
2022/07/05 01:30:34;;;;;;;2.63;1.77;;;25.80;59.00;;;;;;6273156;22;20366;-72
2022/07/05 01:33:07;;;;;;;2.00;1.80;;;25.70;59.00;;;;;;6222308;22;20373;-72
2022/07/05 01:35:36;;;;;;;2.50;1.80;;;25.70;59.00;;;;;;6273337;22;20354;-71
2022/07/05 01:38:03;;;;;;;2.73;1.87;;;25.70;59.10;;;;;;6272825;22;20393;-71
2022/07/05 01:40:32;;;;;;;1.90;1.80;;;25.70;59.10;;;;;;6248058;22;20431;-71
2022/07/05 01:43:02;;;;;;;3.03;2.13;;;25.60;59.10;;;;;;6197740;22;20401;-72
2022/07/05 01:45:41;;;;;;;3.07;2.03;;;25.70;59.10;;;;;;6247489;22;20386;-71
2022/07/05 01:48:13;;;;;;;3.20;2.17;;;25.60;59.10;;;;;;6247495;22;20766;-71
2022/07/05 01:50:47;;;;;;;2.40;2.20;;;25.60;59.10;;;;;;6274476;22;20852;-71
2022/07/05 01:53:33;;;;;;;2.23;1.90;;;25.60;59.20;;;;;;6272804;22;20435;-72
2022/07/05 01:56:03;;;;;;;2.17;2.07;;;25.60;59.20;;;;;;6222566;22;20392;-71
2022/07/05 01:58:32;;;;;;;2.73;1.87;;;25.60;59.30;;;;;;6209753;23;20460;-71
2022/07/05 02:01:01;;;;;;;2.93;2.10;;;25.50;59.30;;;;;;6245802;22;20457;-71
2022/07/05 02:03:33;;;;;;;2.53;1.70;;;25.60;59.30;;;;;;6222303;22;20350;-71
2022/07/05 02:06:01;;;;;;;2.13;1.80;;;25.50;59.30;;;;;;6222355;22;20396;-72
2022/07/05 02:08:30;;;;;;;4.93;2.17;;;25.50;59.40;;;;;;6247060;22;20407;-71
2022/07/05 02:11:02;;;;;;;2.67;2.00;;;25.50;59.40;;;;;;6223733;22;20395;-71
2022/07/05 02:13:28;;;;;;;1.77;1.67;;;25.50;59.40;;;;;;6247218;22;20390;-71
2022/07/05 02:15:57;;;;;;;2.40;2.20;;;25.40;59.40;;;;;;6247920;22;20428;-72
2022/07/05 02:18:24;;;;;;;4.03;2.20;;;25.40;59.40;;;;;;6247002;22;20416;-72
2022/07/05 02:20:51;;;;;;;2.00;1.80;;;25.40;59.40;;;;;;6247366;22;20765;-71
2022/07/05 02:23:18;;;;;;;3.70;2.07;;;25.40;59.50;;;;;;6222095;22;20448;-72
2022/07/05 02:25:46;;;;;;;2.33;2.10;;;25.40;59.50;;;;;;6221649;22;20432;-71
2022/07/05 02:28:15;;;;;;;1.80;1.70;;;25.40;59.50;;;;;;6221573;22;20504;-71
2022/07/05 02:30:45;;;;;;;1.90;1.80;;;25.30;59.50;;;;;;6221744;22;20401;-72
2022/07/05 02:33:14;;;;;;;2.77;2.00;;;25.30;59.50;;;;;;6222578;22;20374;-72
2022/07/05 02:35:43;;;;;;;3.20;2.20;;;25.30;59.50;;;;;;6197254;22;20393;-72
2022/07/05 02:38:14;;;;;;;2.07;1.90;;;25.30;59.60;;;;;;6274077;22;20487;-72
2022/07/05 02:40:40;;;;;;;2.17;1.97;;;25.30;59.70;;;;;;6247196;22;20430;-71
2022/07/05 02:43:09;;;;;;;2.37;2.10;;;25.30;59.60;;;;;;6247535;22;20838;-71
2022/07/05 02:45:37;;;;;;;2.37;2.17;;;25.30;59.60;;;;;;6247201;22;20911;-72
2022/07/05 02:48:06;;;;;;;1.90;1.80;;;25.20;59.60;;;;;;6247344;22;20407;-72
2022/07/05 02:50:35;;;;;;;3.30;1.77;;;25.20;59.60;;;;;;6247137;22;20354;-71
2022/07/05 02:53:07;;;;;;;2.83;1.60;;;25.20;59.70;;;;;;6222032;22;20765;-72
2022/07/05 02:55:36;;;;;;;2.30;2.10;;;25.20;59.60;;;;;;6246637;22;20384;-71
2022/07/05 02:58:07;;;;;;;2.27;2.07;;;25.20;59.70;;;;;;6222931;22;20856;-72
2022/07/05 03:00:33;;;;;;;2.30;1.80;;;25.20;59.70;;;;;;6223626;22;20432;-72
2022/07/05 03:03:01;;;;;;;2.23;2.03;;;25.10;59.60;;;;;;6224135;22;20381;-72
2022/07/05 03:05:29;;;;;;;2.83;1.93;;;25.10;59.70;;;;;;6248863;22;20363;-72
2022/07/05 03:08:00;;;;;;;2.80;2.47;;;25.10;59.70;;;;;;6248658;22;21042;-72
2022/07/05 03:10:35;;;;;;;2.10;1.93;;;25.10;59.80;;;;;;6249195;22;20903;-71
2022/07/05 03:13:05;;;;;;;5.10;1.97;;;25.00;59.70;;;;;;6223686;22;20779;-71
2022/07/05 03:15:31;;;;;;;1.87;1.57;;;25.00;59.70;;;;;;6248859;22;20360;-72
2022/07/05 03:17:58;;;;;;;2.83;2.17;;;25.00;59.80;;;;;;6248361;22;20488;-71
2022/07/05 03:20:25;;;;;;;2.10;1.80;;;25.00;59.80;;;;;;6248655;22;20362;-71
2022/07/05 03:22:52;;;;;;;2.17;1.97;;;25.00;59.80;;;;;;6223479;22;20952;-72
2022/07/05 03:25:24;;;;;;;2.10;2.00;;;24.90;59.80;;;;;;6249351;22;20865;-71
2022/07/05 03:27:51;;;;;;;3.70;1.83;;;24.90;59.90;;;;;;6248615;22;20754;-71
2022/07/05 03:30:17;;;;;;;2.80;2.00;;;24.90;59.90;;;;;;6223355;22;20435;-72
2022/07/05 03:32:46;;;;;;;3.30;1.87;;;24.90;59.80;;;;;;6275722;22;20836;-72
2022/07/05 03:35:15;;;;;;;2.60;1.87;;;24.90;59.90;;;;;;6223154;22;20405;-71
2022/07/05 03:37:47;;;;;;;2.60;2.40;;;24.90;59.90;;;;;;6248736;22;20705;-71
2022/07/05 03:40:16;;;;;;;2.70;2.20;;;24.90;59.90;;;;;;6223965;22;20385;-72
2022/07/05 03:42:42;;;;;;;2.00;1.80;;;24.90;60.00;;;;;;6248378;22;20373;-72
2022/07/05 03:45:11;;;;;;;2.23;2.03;;;24.90;60.00;;;;;;6223735;22;20455;-72
2022/07/05 03:47:38;;;;;;;3.00;2.27;;;24.80;60.00;;;;;;6248150;22;20872;-71
2022/07/05 03:50:09;;;;;;;2.50;2.10;;;24.80;60.00;;;;;;6198569;22;20488;-72
2022/07/05 03:52:38;;;;;;;2.07;1.87;;;24.80;60.00;;;;;;6221854;22;20439;-72
2022/07/05 03:55:09;;;;;;;2.07;1.83;;;24.80;60.10;;;;;;6249092;22;20358;-72
2022/07/05 03:57:35;;;;;;;2.43;2.23;;;24.70;60.00;;;;;;6248487;22;20373;-71
2022/07/05 04:00:04;;;;;;;2.77;2.00;;;24.70;60.00;;;;;;6224138;22;20765;-71
2022/07/05 04:02:46;;;;;;;2.90;2.43;;;24.70;60.10;;;;;;6275410;22;20399;-71
2022/07/05 04:05:15;;;;;;;2.37;2.00;;;24.70;60.10;;;;;;6223047;22;20860;-72
2022/07/05 04:07:54;;;;;;;3.07;2.07;;;24.70;60.20;;;;;;6248092;22;20500;-71
2022/07/05 04:10:26;;;;;;;1.80;1.70;;;24.60;60.20;;;;;;6235423;23;20382;-71
2022/07/05 04:12:52;;;;;;;2.30;2.10;;;24.70;60.30;;;;;;6218490;22;20387;-71
2022/07/05 04:15:21;;;;;;;3.77;3.03;;;24.60;60.20;;;;;;6217885;23;20448;-71
2022/07/05 04:17:58;;;;;;;3.10;2.00;;;24.60;60.30;;;;;;6264307;22;20397;-71
2022/07/05 04:20:29;;;;;;;2.87;2.30;;;24.60;60.30;;;;;;6274117;22;20955;-71
2022/07/05 04:22:56;;;;;;;2.00;1.90;;;24.60;60.30;;;;;;6222568;22;20385;-71
2022/07/05 04:25:24;;;;;;;1.83;1.73;;;24.60;60.40;;;;;;6223161;22;20365;-72
2022/07/05 04:28:12;;;;;;;2.67;1.97;;;24.50;60.30;;;;;;6268904;22;20443;-72
2022/07/05 04:30:39;;;;;;;2.33;2.13;;;24.50;60.40;;;;;;6275239;22;20705;-72
2022/07/05 04:33:08;;;;;;;2.20;2.10;;;24.50;60.40;;;;;;6247772;22;20444;-71
2022/07/05 04:35:37;;;;;;;4.10;2.33;;;24.50;60.40;;;;;;6273429;22;20404;-71
2022/07/05 04:38:03;;;;;;;2.47;2.27;;;24.50;60.50;;;;;;6248289;22;20351;-72
2022/07/05 04:40:32;;;;;;;3.53;2.30;;;24.50;60.60;;;;;;6273810;22;20852;-71
2022/07/05 04:43:04;;;;;;;2.20;2.00;;;24.40;60.40;;;;;;6224010;22;20393;-71
2022/07/05 04:45:33;;;;;;;4.23;2.67;;;24.40;60.50;;;;;;6248464;22;20854;-72
2022/07/05 04:48:01;;;;;;;1.97;1.80;;;24.40;60.60;;;;;;6222276;22;20959;-70
2022/07/05 04:50:29;;;;;;;2.57;2.30;;;24.40;60.70;;;;;;6274486;22;20471;-71
2022/07/05 04:52:57;;;;;;;3.20;1.90;;;24.40;60.80;;;;;;6247856;22;20683;-72
2022/07/05 04:55:26;;;;;;;3.70;2.30;;;24.40;60.70;;;;;;6222630;22;20374;-72
2022/07/05 04:57:54;;;;;;;2.77;2.57;;;24.40;60.80;;;;;;6274941;22;20373;-72
2022/07/05 05:00:20;;;;;;;2.70;2.50;;;24.40;60.90;;;;;;6273236;22;20473;-71
2022/07/05 05:02:54;;;;;;;6.83;2.47;;;24.40;60.90;;;;;;6273432;22;20459;-72
2022/07/05 05:05:22;;;;;;;3.90;2.63;;;24.30;60.80;;;;;;6247921;22;20377;-72
2022/07/05 05:07:48;;;;;;;3.60;2.37;;;24.30;60.90;;;;;;6273384;22;20410;-72
2022/07/05 05:10:16;;;;;;;2.40;2.20;;;24.30;61.00;;;;;;6274802;22;20428;-72
2022/07/05 05:12:42;;;;;;;2.53;2.33;;;24.30;61.00;;;;;;6222879;22;20362;-71
2022/07/05 05:15:11;;;;;;;3.83;1.90;;;24.30;61.10;;;;;;6274750;22;20406;-72
2022/07/05 05:17:40;;;;;;;2.23;2.03;;;24.20;61.10;;;;;;6275017;22;20401;-71
2022/07/05 05:20:19;;;;;;;2.40;2.20;;;24.20;61.10;;;;;;6247886;22;20404;-72
2022/07/05 05:22:46;;;;;;;2.50;2.27;;;24.20;61.20;;;;;;6273968;22;20444;-72
2022/07/05 05:25:12;;;;;;;2.67;2.10;;;24.20;61.30;;;;;;6222572;22;20425;-70
2022/07/05 05:27:47;;;;;;;3.43;2.10;;;24.20;61.40;;;;;;6247789;22;20436;-71
2022/07/05 05:30:17;;;;;;;2.60;2.40;;;24.20;61.40;;;;;;6247630;22;20409;-70
2022/07/05 05:32:45;;;;;;;3.10;2.13;;;24.20;61.60;;;;;;6274891;22;20872;-71
2022/07/05 05:35:12;;;;;;;2.13;2.03;;;24.20;61.60;;;;;;6272950;22;20476;-71
2022/07/05 05:37:53;;;;;;;2.80;2.60;;;24.20;61.70;;;;;;6274448;22;20455;-70
2022/07/05 05:40:24;;;;;;;5.17;2.40;;;24.20;61.70;;;;;;6273070;22;20787;-73
2022/07/05 05:42:56;;;;;;;2.90;2.10;;;24.20;61.70;;;;;;6247403;22;20449;-71
2022/07/05 05:45:24;;;;;;;2.47;2.27;;;24.10;61.50;;;;;;6222630;22;20405;-71
2022/07/05 05:47:53;;;;;;;4.00;2.30;;;24.20;61.70;;;;;;6247185;22;20416;-71
2022/07/05 05:50:28;;;;;;;2.50;2.30;;;24.20;61.80;;;;;;6247402;22;20408;-70
2022/07/05 05:52:54;;;;;;;3.60;2.50;;;24.10;61.70;;;;;;6247478;22;20357;-72
2022/07/05 05:55:21;;;;;;;5.03;2.20;;;24.10;61.70;;;;;;6274376;22;20357;-71
2022/07/05 05:57:48;;;;;;;2.30;2.07;;;24.10;61.70;;;;;;6272911;22;20888;-72
2022/07/05 06:00:15;;;;;;;2.17;1.97;;;24.10;61.80;;;;;;6247570;22;20403;-71
2022/07/05 06:02:42;;;;;;;2.17;1.97;;;24.10;61.90;;;;;;6217292;22;20403;-71
2022/07/05 06:05:11;;;;;;;3.83;1.97;;;24.10;61.90;;;;;;6247555;22;20788;-71
2022/07/05 06:07:49;;;;;;;2.43;1.93;;;24.10;62.20;;;;;;6274347;22;20417;-72
2022/07/05 06:10:19;;;;;;;5.17;2.80;;;24.10;62.20;;;;;;6274391;22;20397;-72
2022/07/05 06:12:48;;;;;;;2.80;2.37;;;24.10;62.10;;;;;;6247311;22;20388;-72
2022/07/05 06:15:19;;;;;;;6.13;3.07;;;24.10;62.10;;;;;;6273994;22;20358;-71
2022/07/05 06:17:46;;;;;;;3.00;2.40;;;24.10;62.10;;;;;;6246890;22;20405;-71
2022/07/05 06:20:17;;;;;;;3.10;2.30;;;24.10;62.10;;;;;;6247181;22;20401;-72
2022/07/05 06:22:45;;;;;;;2.60;2.40;;;24.00;62.10;;;;;;6247261;22;20782;-71
2022/07/05 06:25:11;;;;;;;3.03;2.40;;;24.00;62.10;;;;;;6197009;22;20423;-71
2022/07/05 06:27:45;;;;;;;4.80;1.73;;;24.00;62.00;;;;;;6273949;22;20429;-71
2022/07/05 06:30:14;;;;;;;2.20;2.00;;;24.00;62.10;;;;;;6273731;22;20950;-71
2022/07/05 06:32:44;;;;;;;2.40;2.20;;;24.00;62.00;;;;;;6275245;22;21018;-72
2022/07/05 06:35:14;;;;;;;2.00;1.80;;;24.00;61.90;;;;;;6276294;22;20361;-71
2022/07/05 06:37:54;;;;;;;1.90;1.80;;;24.00;61.90;;;;;;6274149;22;20409;-72
2022/07/05 06:40:25;;;;;;;2.00;1.90;;;24.00;61.80;;;;;;6249085;22;20373;-72
2022/07/05 06:42:57;;;;;;;2.20;2.00;;;24.00;61.80;;;;;;6223828;22;20825;-72
2022/07/05 06:45:33;;;;;;;2.10;1.80;;;24.00;61.70;;;;;;6249203;22;20376;-72
2022/07/05 06:48:10;;;;;;;2.77;2.10;;;24.00;61.60;;;;;;6276417;22;20416;-72
2022/07/05 06:50:41;;;;;;;3.00;2.03;;;24.00;61.50;;;;;;6249467;22;20403;-71
2022/07/05 06:53:08;;;;;;;2.50;1.97;;;24.00;62.30;;;;;;6248584;22;20389;-72
2022/07/05 06:55:36;;;;;;;2.07;1.77;;;24.00;61.50;;;;;;6249020;22;20450;-72
2022/07/05 06:58:07;;;;;;;2.83;2.13;;;24.00;61.40;;;;;;6275826;22;20366;-71
2022/07/05 07:00:36;;;;;;;2.80;2.17;;;24.00;61.50;;;;;;6249078;22;20411;-71
2022/07/05 07:03:02;;;;;;;2.00;1.90;;;24.00;61.40;;;;;;6275704;22;20408;-71
2022/07/05 07:05:30;;;;;;;2.03;1.80;;;24.00;61.30;;;;;;6249465;22;20373;-71
2022/07/05 07:10:42;;;;;;;2.17;1.90;;;24.00;61.10;;;;;;6249248;22;20222;-69
2022/07/05 07:13:08;;;;;;;3.53;2.27;;;24.00;61.10;;;;;;6275937;22;20427;-69
2022/07/05 07:15:37;;;;;;;2.17;2.00;;;24.00;61.00;;;;;;6249096;22;20354;-69
2022/07/05 07:18:08;;;;;;;2.80;1.80;;;24.00;61.00;;;;;;6248711;22;20698;-69
2022/07/05 07:20:37;;;;;;;2.00;1.80;;;24.00;60.90;;;;;;6276156;22;20711;-69
2022/07/05 07:23:07;;;;;;;2.60;1.87;;;24.00;60.80;;;;;;6275800;22;20377;-69
2022/07/05 07:25:34;;;;;;;2.53;2.07;;;24.00;60.70;;;;;;6249038;22;20415;-69
2022/07/05 07:28:02;;;;;;;3.20;1.73;;;24.00;60.80;;;;;;6275509;22;20431;-69
2022/07/05 07:30:28;;;;;;;3.20;2.00;;;24.10;60.80;;;;;;6248900;22;20825;-69
2022/07/05 07:32:57;;;;;;;2.60;2.40;;;24.10;60.70;;;;;;6249169;22;20364;-69
2022/07/05 07:35:25;;;;;;;3.80;2.17;;;24.10;60.80;;;;;;6248986;22;20849;-69
2022/07/05 07:37:51;;;;;;;2.70;2.20;;;24.10;60.80;;;;;;6248717;22;20399;-69
2022/07/05 07:40:18;;;;;;;2.67;2.40;;;24.10;60.70;;;;;;6223671;22;20460;-69
2022/07/05 07:42:48;;;;;;;2.93;2.57;;;24.10;60.70;;;;;;6273870;22;20735;-69
2022/07/05 07:45:26;;;;;;;3.47;2.73;;;24.10;60.70;;;;;;6275924;22;20860;-70
2022/07/05 07:47:56;;;;;;;3.43;2.83;;;24.10;60.70;;;;;;6273573;22;20413;-69
2022/07/05 07:50:24;;;;;;;3.40;3.10;;;24.10;60.70;;;;;;6248618;22;20875;-69
2022/07/05 07:52:53;;;;;;;3.43;2.60;;;24.10;60.70;;;;;;6275768;22;20385;-69
2022/07/05 07:55:21;;;;;;;4.80;3.07;;;24.10;60.60;;;;;;6275557;22;20404;-69
2022/07/05 07:57:51;;;;;;;4.30;3.07;;;24.10;60.50;;;;;;6275586;22;20419;-69
2022/07/05 08:00:20;;;;;;;3.30;3.00;;;24.20;60.70;;;;;;6223996;22;20366;-69
2022/07/05 08:02:46;;;;;;;5.50;2.80;;;24.20;60.60;;;;;;6275777;22;20891;-69
2022/07/05 08:05:14;;;;;;;6.40;2.93;;;24.20;60.50;;;;;;6223707;22;20418;-69
2022/07/05 08:07:42;;;;;;;4.13;2.83;;;24.20;60.40;;;;;;6248322;22;20428;-69
2022/07/05 08:10:09;;;;;;;4.00;2.90;;;24.20;60.40;;;;;;6248021;22;20966;-69
2022/07/05 08:12:34;;;;;;;4.03;3.00;;;24.20;60.30;;;;;;6248303;22;20385;-69
2022/07/05 08:15:01;;;;;;;4.30;3.10;;;24.20;60.30;;;;;;6273782;22;20767;-69
2022/07/05 08:17:29;;;;;;;6.77;2.83;;;24.20;60.20;;;;;;6248510;22;20431;-69
2022/07/05 08:22:42;;;;;;;4.93;2.40;;;24.30;60.10;;;;;;6273867;22;20758;-69
2022/07/05 08:25:17;;;;;;;3.57;2.40;;;24.30;59.90;;;;;;6248229;22;20392;-69
2022/07/05 08:27:47;;;;;;;5.70;2.60;;;24.30;59.90;;;;;;6273860;22;20934;-69
2022/07/05 08:30:13;;;;;;;3.73;2.90;;;24.30;59.90;;;;;;6275828;22;20460;-69
2022/07/05 08:32:41;;;;;;;7.83;2.90;;;24.40;59.90;;;;;;6273868;22;20856;-69
2022/07/05 08:35:10;;;;;;;3.60;2.70;;;24.40;59.90;;;;;;6248269;22;20369;-69
2022/07/05 08:37:41;;;;;;;2.53;2.30;;;24.40;59.80;;;;;;6198925;22;20396;-69
2022/07/05 08:40:14;;;;;;;3.10;2.37;;;24.40;59.80;;;;;;6275057;22;20786;-69
2022/07/05 08:42:41;;;;;;;3.30;2.60;;;24.40;59.70;;;;;;6248300;22;20393;-70
2022/07/05 08:45:08;;;;;;;3.43;2.20;;;24.40;59.70;;;;;;6248453;22;20381;-69
2022/07/05 08:47:37;;;;;;;2.70;2.20;;;24.40;59.60;;;;;;6247753;22;20921;-69
2022/07/05 08:50:04;;;;;;;8.53;2.87;;;24.40;59.60;;;;;;6248276;22;20393;-69
2022/07/05 08:52:31;;;;;;;2.90;2.23;;;24.40;59.50;;;;;;6247891;22;20455;-69
2022/07/05 08:54:58;;;;;;;2.60;1.97;;;24.50;59.60;;;;;;6222721;22;20373;-69
2022/07/05 08:57:24;;;;;;;2.10;1.90;;;24.50;59.50;;;;;;6248074;22;20394;-69
2022/07/05 08:59:52;;;;;;;4.63;2.07;;;24.50;59.50;;;;;;6273434;22;20405;-69
2022/07/05 09:02:23;;;;;;;2.60;2.20;;;24.50;59.50;;;;;;6222796;22;20389;-69
2022/07/05 09:04:55;;;;;;;2.43;1.97;;;24.50;59.50;;;;;;6222948;22;20389;-69
2022/07/05 09:07:26;;;;;;;2.50;2.10;;;24.50;59.50;;;;;;6248081;22;20409;-69
2022/07/05 09:09:52;;;;;;;2.30;2.10;;;24.50;59.50;;;;;;6247679;22;20406;-69
2022/07/05 09:12:21;;;;;;;2.13;1.90;;;24.50;59.50;;;;;;6248539;22;20460;-69
2022/07/05 09:14:54;;;;;;;2.33;2.13;;;24.60;59.50;;;;;;6273413;22;20389;-69
2022/07/05 09:17:25;;;;;;;3.20;2.07;;;24.60;59.50;;;;;;6247810;22;20411;-69
2022/07/05 09:20:15;;;;;;;2.77;2.00;;;24.60;59.50;;;;;;6274781;22;20405;-69
2022/07/05 09:22:54;;;;;;;3.10;2.07;;;24.60;59.50;;;;;;6248033;22;20773;-69
2022/07/05 09:25:32;;;;;;;2.30;1.97;;;24.60;59.40;;;;;;6247970;22;20470;-69
2022/07/05 09:28:02;;;;;;;2.63;2.17;;;24.70;59.60;;;;;;6222518;22;20409;-69
2022/07/05 09:30:30;;;;;;;2.33;2.13;;;24.70;59.60;;;;;;6274811;22;20374;-69
2022/07/05 09:33:09;;;;;;;3.33;2.20;;;24.70;59.50;;;;;;6247773;22;20876;-69
2022/07/05 09:35:42;;;;;;;2.93;1.80;;;24.70;59.50;;;;;;6273184;22;20425;-69
2022/07/05 09:38:22;;;;;;;2.00;1.90;;;24.70;59.40;;;;;;6274753;22;20948;-69
2022/07/05 09:41:00;;;;;;;2.53;1.80;;;24.70;59.50;;;;;;6274971;22;20430;-69
2022/07/05 09:43:31;;;;;;;3.63;2.00;;;24.70;59.40;;;;;;6222037;22;20413;-69
2022/07/05 09:46:07;;;;;;;2.60;2.07;;;24.70;59.40;;;;;;6247579;22;20405;-69
2022/07/05 09:48:35;;;;;;;1.90;1.60;;;24.80;59.40;;;;;;6273030;22;20421;-69
2022/07/05 09:51:09;;;;;;;2.77;1.90;;;24.80;59.40;;;;;;6247887;22;20359;-69
2022/07/05 09:53:49;;;;;;;2.30;2.10;;;24.80;59.30;;;;;;6246873;22;20373;-70
2022/07/05 09:56:20;;;;;;;2.17;1.90;;;24.80;59.30;;;;;;6247948;22;20373;-69
2022/07/05 09:58:46;;;;;;;2.53;2.07;;;24.80;59.10;;;;;;6274297;22;20389;-69
2022/07/05 10:01:25;;;;;;;2.43;2.10;;;24.80;59.10;;;;;;6247861;22;20368;-69
2022/07/05 10:03:58;;;;;;;1.70;1.60;;;24.90;59.10;;;;;;6273669;22;20463;-69
2022/07/05 10:06:28;;;;;;;2.47;2.20;;;24.90;59.00;;;;;;6222968;22;20508;-69
2022/07/05 10:08:57;;;;;;;2.40;1.83;;;24.90;59.40;;;;;;6249857;22;20389;-69
2022/07/05 10:11:24;;;;;;;2.03;1.80;;;24.90;58.70;;;;;;6250336;22;20816;-69
2022/07/05 10:13:58;;;;;;;3.20;1.80;;;24.90;58.60;;;;;;6275359;22;20389;-70
2022/07/05 10:16:24;;;;;;;2.27;1.87;;;25.00;58.40;;;;;;6275259;22;20455;-69
2022/07/05 10:18:57;;;;;;;1.73;1.63;;;25.00;58.20;;;;;;6276270;22;20484;-69
2022/07/05 10:21:25;;;;;;;2.47;1.73;;;25.00;58.20;;;;;;6224495;22;20406;-69
2022/07/05 10:23:58;;;;;;;2.17;1.80;;;25.00;58.10;;;;;;6276782;22;20371;-69
2022/07/05 10:26:25;;;;;;;2.63;2.00;;;25.10;58.10;;;;;;6276858;22;20716;-69
2022/07/05 10:28:54;;;;;;;1.67;1.57;;;25.10;58.00;;;;;;6249202;22;20420;-69
2022/07/05 10:31:24;;;;;;;2.37;2.00;;;25.20;58.10;;;;;;6224295;22;20391;-69
2022/07/05 10:33:51;;;;;;;1.90;1.70;;;25.20;58.00;;;;;;6276485;22;20748;-69
2022/07/05 10:36:23;;;;;;;3.10;2.00;;;25.20;57.90;;;;;;6250003;22;20361;-69
2022/07/05 10:38:51;;;;;;;2.73;1.90;;;25.20;57.90;;;;;;6276585;22;20447;-69
2022/07/05 10:41:31;;;;;;;2.27;2.10;;;25.30;58.10;;;;;;6200784;22;20439;-69
2022/07/05 10:44:04;;;;;;;2.17;2.07;;;25.30;58.00;;;;;;6250122;22;20395;-69
2022/07/05 10:46:37;;;;;;;3.10;2.23;;;25.30;58.00;;;;;;6249004;22;20545;-69
2022/07/05 10:49:17;;;;;;;2.30;2.10;;;25.40;57.90;;;;;;6276266;22;20713;-69
2022/07/05 10:51:49;;;;;;;3.33;1.90;;;25.40;57.90;;;;;;6249001;22;20415;-69
2022/07/05 10:54:17;;;;;;;1.90;1.77;;;25.40;57.70;;;;;;6276511;22;20369;-69
2022/07/05 10:57:24;;;;;;;3.47;2.10;;;25.40;57.70;;;;;;6249241;22;20391;-69
2022/07/05 11:00:06;;;;;;;1.90;1.80;;;25.50;57.60;;;;;;6276224;22;20405;-69
2022/07/05 11:02:32;;;;;;;2.00;1.80;;;25.50;57.60;;;;;;6249499;22;20405;-69
2022/07/05 11:05:01;;;;;;;1.93;1.77;;;25.50;57.50;;;;;;6276274;22;20377;-69
2022/07/05 11:08:02;;;;;;;1.83;1.73;;;25.60;57.50;;;;;;6276240;22;20912;-69
2022/07/05 11:10:31;;;;;;;2.03;1.83;;;25.60;57.40;;;;;;6249171;22;20386;-69
2022/07/05 11:13:40;;;;;;;2.47;1.97;;;25.60;57.30;;;;;;6276507;22;20701;-69
2022/07/05 11:16:22;;;;;;;4.17;2.33;;;25.60;57.20;;;;;;6274780;22;20888;-69
2022/07/05 11:19:16;;;;;;;2.13;1.93;;;25.70;57.40;;;;;;6275777;22;20494;-69
2022/07/05 11:22:06;;;;;;;2.60;2.33;;;25.70;57.30;;;;;;6275711;22;20365;-69
2022/07/05 11:24:36;;;;;;;3.17;2.10;;;25.70;57.30;;;;;;6276545;22;20357;-69
2022/07/05 11:27:10;;;;;;;2.50;2.30;;;25.80;57.40;;;;;;6276201;22;20408;-70
2022/07/05 11:29:51;;;;;;;1.90;1.80;;;25.80;57.30;;;;;;6248778;22;20408;-69
2022/07/05 11:32:29;;;;;;;2.30;2.10;;;25.80;57.30;;;;;;6219062;23;20385;-69
2022/07/05 11:35:17;;;;;;;2.00;1.70;;;25.80;57.30;;;;;;6275236;22;20386;-69
2022/07/05 11:38:01;;;;;;;2.37;2.17;;;25.90;57.40;;;;;;6275990;22;20368;-69
2022/07/05 11:40:33;;;;;;;2.03;1.83;;;25.90;57.40;;;;;;6275673;22;20362;-69
2022/07/05 11:43:03;;;;;;;3.07;1.97;;;25.90;57.40;;;;;;6276349;22;20860;-69
2022/07/05 11:45:31;;;;;;;1.90;1.80;;;25.90;57.00;;;;;;6249145;22;20368;-69
2022/07/05 11:48:00;;;;;;;2.73;2.20;;;25.90;56.80;;;;;;6224266;22;20461;-69
2022/07/05 11:50:32;;;;;;;2.00;1.70;;;25.90;56.60;;;;;;6274392;22;20361;-70
2022/07/05 11:53:00;;;;;;;2.00;1.80;;;25.90;56.50;;;;;;6273929;22;20382;-69
2022/07/05 11:55:33;;;;;;;3.53;2.07;;;25.90;56.60;;;;;;6248802;22;20480;-69
2022/07/05 11:58:01;;;;;;;2.00;1.90;;;26.00;56.80;;;;;;6275732;22;20502;-69
2022/07/05 12:00:34;;;;;;;2.03;1.83;;;26.00;56.80;;;;;;6248737;22;20388;-70
2022/07/05 12:03:02;;;;;;;4.43;1.90;;;26.00;56.70;;;;;;6248940;22;20365;-70
2022/07/05 12:05:34;;;;;;;2.03;1.80;;;26.10;56.80;;;;;;6248808;22;20372;-69
2022/07/05 12:08:00;;;;;;;1.70;1.60;;;26.10;56.70;;;;;;6248444;22;20425;-69
2022/07/05 12:13:11;;;;;;;2.40;2.03;;;26.20;56.70;;;;;;6274232;22;20444;-70
2022/07/05 12:15:39;;;;;;;1.97;1.87;;;26.20;56.70;;;;;;6248629;22;20443;-70
2022/07/05 12:18:11;;;;;;;2.90;2.17;;;26.20;56.60;;;;;;6248025;22;20438;-69
2022/07/05 12:20:39;;;;;;;2.87;2.20;;;26.30;56.60;;;;;;6275369;22;20370;-69
2022/07/05 12:23:08;;;;;;;3.43;2.33;;;26.30;56.40;;;;;;6248357;22;20453;-69
2022/07/05 12:25:40;;;;;;;2.57;2.10;;;26.30;56.50;;;;;;6275638;22;20512;-69
2022/07/05 12:28:09;;;;;;;2.50;2.30;;;26.40;56.50;;;;;;6275182;22;20409;-69
2022/07/05 12:30:35;;;;;;;3.27;1.93;;;26.40;56.40;;;;;;6197449;22;20380;-69
2022/07/05 12:33:10;;;;;;;3.07;2.23;;;26.40;56.30;;;;;;6275297;22;20362;-69
2022/07/05 12:35:50;;;;;;;1.97;1.80;;;26.40;56.30;;;;;;6248420;22;20381;-69
2022/07/05 12:38:20;;;;;;;2.30;2.10;;;26.40;55.90;;;;;;6248110;22;20396;-69
2022/07/05 12:40:57;;;;;;;2.10;1.90;;;26.50;55.90;;;;;;6274993;22;20404;-69
2022/07/05 12:43:27;;;;;;;2.97;2.10;;;26.50;55.90;;;;;;6248626;22;20695;-70
2022/07/05 12:46:02;;;;;;;2.83;2.40;;;26.50;55.90;;;;;;6223001;22;20396;-69
2022/07/05 12:48:35;;;;;;;2.10;2.00;;;26.60;55.80;;;;;;6248552;22;20393;-70
2022/07/05 12:51:02;;;;;;;2.10;1.93;;;26.60;55.80;;;;;;6247944;22;20492;-69
2022/07/05 12:59:12;;;;;;;2.50;2.30;;;26.60;55.60;;;;;;6273602;22;20396;-69
2022/07/05 13:01:45;;;;;;;2.53;2.20;;;26.70;55.80;;;;;;6275115;22;20362;-69
2022/07/05 13:04:19;;;;;;;1.70;1.60;;;26.70;55.70;;;;;;6247865;22;20397;-69
2022/07/05 13:07:00;;;;;;;2.83;1.90;;;26.70;55.70;;;;;;6248047;22;20425;-69
2022/07/05 13:09:29;;;;;;;2.63;1.97;;;26.70;55.70;;;;;;6248551;22;20394;-69
2022/07/05 13:12:15;;;;;;;2.00;1.90;;;26.80;55.90;;;;;;6275125;22;20370;-69
2022/07/05 13:14:43;;;;;;;2.40;2.20;;;26.80;55.80;;;;;;6248100;22;20384;-70
2022/07/05 13:17:11;;;;;;;6.43;2.43;;;26.90;55.80;;;;;;6222815;22;20888;-70
2022/07/05 13:19:42;;;;;;;3.17;2.00;;;26.90;55.70;;;;;;6248149;22;20408;-70